sensor_id;sensor_type;location;lat;lon;timestamp;pressure;altitude;pressure_sealevel;temperature;humidity
77723;BME280;67811;42.656;23.394;2023-12-29T00:00:43;95741.72;;;2.35;78.01
77723;BME280;67811;42.656;23.394;2023-12-29T00:04:48;95749.47;;;2.25;78.96
77723;BME280;67811;42.656;23.394;2023-12-29T00:08:54;95750.97;;;2.05;80.29
77723;BME280;67811;42.656;23.394;2023-12-29T00:12:59;95738.97;;;2.14;80.30
77723;BME280;67811;42.656;23.394;2023-12-29T00:17:04;95742.19;;;2.06;80.54
77723;BME280;67811;42.656;23.394;2023-12-29T00:21:10;95747.25;;;1.97;81.51
77723;BME280;67811;42.656;23.394;2023-12-29T00:25:15;95740.38;;;1.96;81.72
77723;BME280;67811;42.656;23.394;2023-12-29T00:29:20;95750.34;;;1.91;81.96
77723;BME280;67811;42.656;23.394;2023-12-29T00:33:26;95751.91;;;1.93;82.23
77723;BME280;67811;42.656;23.394;2023-12-29T00:37:31;95755.59;;;2.02;81.85
77723;BME280;67811;42.656;23.394;2023-12-29T00:41:36;95744.91;;;2.05;81.38
77723;BME280;67811;42.656;23.394;2023-12-29T00:45:42;95750.69;;;1.97;81.22
77723;BME280;67811;42.656;23.394;2023-12-29T00:49:47;95739.75;;;1.92;79.52
77723;BME280;67811;42.656;23.394;2023-12-29T00:53:52;95732.91;;;1.56;81.91
77723;BME280;67811;42.656;23.394;2023-12-29T00:57:57;95725.41;;;1.51;82.23
77723;BME280;67811;42.656;23.394;2023-12-29T01:02:03;95728.16;;;1.50;83.02
77723;BME280;67811;42.656;23.394;2023-12-29T01:06:08;95728.09;;;1.74;82.65
77723;BME280;67811;42.656;23.394;2023-12-29T01:10:14;95722.00;;;1.62;83.23
77723;BME280;67811;42.656;23.394;2023-12-29T01:14:19;95726.03;;;1.55;83.10
77723;BME280;67811;42.656;23.394;2023-12-29T01:18:24;95728.41;;;1.58;83.23
77723;BME280;67811;42.656;23.394;2023-12-29T01:22:30;95732.91;;;1.56;82.95
77723;BME280;67811;42.656;23.394;2023-12-29T01:26:38;95730.47;;;1.66;82.75
77723;BME280;67811;42.656;23.394;2023-12-29T01:30:43;95723.94;;;1.71;81.83
77723;BME280;67811;42.656;23.394;2023-12-29T01:34:48;95722.97;;;1.61;82.20
77723;BME280;67811;42.656;23.394;2023-12-29T01:38:54;95723.69;;;1.74;81.94
77723;BME280;67811;42.656;23.394;2023-12-29T01:43:00;95724.84;;;2.05;80.41
77723;BME280;67811;42.656;23.394;2023-12-29T01:47:14;95719.81;;;1.91;80.63
77723;BME280;67811;42.656;23.394;2023-12-29T01:51:24;95725.31;;;2.10;78.93
77723;BME280;67811;42.656;23.394;2023-12-29T01:55:31;95722.75;;;1.75;80.67
77723;BME280;67811;42.656;23.394;2023-12-29T01:59:37;95722.63;;;1.66;81.43
77723;BME280;67811;42.656;23.394;2023-12-29T02:03:43;95727.38;;;1.72;81.62
77723;BME280;67811;42.656;23.394;2023-12-29T02:07:51;95725.00;;;1.69;80.57
77723;BME280;67811;42.656;23.394;2023-12-29T02:11:56;95720.53;;;1.47;80.97
77723;BME280;67811;42.656;23.394;2023-12-29T02:16:09;95713.72;;;1.33;82.32
77723;BME280;67811;42.656;23.394;2023-12-29T02:20:17;95708.13;;;1.26;82.71
77723;BME280;67811;42.656;23.394;2023-12-29T02:24:23;95703.56;;;1.52;81.27
77723;BME280;67811;42.656;23.394;2023-12-29T02:28:28;95697.41;;;1.18;82.54
77723;BME280;67811;42.656;23.394;2023-12-29T02:32:35;95680.09;;;1.17;82.36
77723;BME280;67811;42.656;23.394;2023-12-29T02:36:42;95686.81;;;1.09;83.22
77723;BME280;67811;42.656;23.394;2023-12-29T02:40:48;95674.13;;;1.15;82.62
77723;BME280;67811;42.656;23.394;2023-12-29T02:44:53;95668.84;;;1.28;81.91
77723;BME280;67811;42.656;23.394;2023-12-29T02:48:58;95664.97;;;1.34;81.57
77723;BME280;67811;42.656;23.394;2023-12-29T02:53:04;95663.41;;;1.42;80.97
77723;BME280;67811;42.656;23.394;2023-12-29T02:57:09;95665.97;;;1.20;81.31
77723;BME280;67811;42.656;23.394;2023-12-29T03:01:14;95659.41;;;1.14;82.21
77723;BME280;67811;42.656;23.394;2023-12-29T03:05:20;95641.59;;;1.08;82.72
77723;BME280;67811;42.656;23.394;2023-12-29T03:09:25;95641.94;;;1.03;83.12
77723;BME280;67811;42.656;23.394;2023-12-29T03:13:30;95636.50;;;1.07;83.52
77723;BME280;67811;42.656;23.394;2023-12-29T03:17:35;95635.84;;;1.16;82.74
77723;BME280;67811;42.656;23.394;2023-12-29T03:21:41;95643.88;;;1.13;82.71
77723;BME280;67811;42.656;23.394;2023-12-29T03:25:46;95629.63;;;1.05;83.30
77723;BME280;67811;42.656;23.394;2023-12-29T03:29:51;95627.97;;;1.04;83.85
77723;BME280;67811;42.656;23.394;2023-12-29T03:33:56;95630.59;;;1.62;83.15
77723;BME280;67811;42.656;23.394;2023-12-29T03:38:02;95627.44;;;1.23;84.54
77723;BME280;67811;42.656;23.394;2023-12-29T03:42:07;95631.13;;;1.32;84.84
77723;BME280;67811;42.656;23.394;2023-12-29T03:46:17;95631.16;;;1.43;84.70
77723;BME280;67811;42.656;23.394;2023-12-29T03:50:22;95625.78;;;1.34;85.23
77723;BME280;67811;42.656;23.394;2023-12-29T03:54:27;95642.88;;;1.02;85.00
77723;BME280;67811;42.656;23.394;2023-12-29T03:58:33;95647.06;;;1.05;85.90
77723;BME280;67811;42.656;23.394;2023-12-29T04:02:38;95650.00;;;1.00;85.17
77723;BME280;67811;42.656;23.394;2023-12-29T04:06:43;95647.63;;;0.97;84.61
77723;BME280;67811;42.656;23.394;2023-12-29T04:10:48;95646.69;;;1.10;83.67
77723;BME280;67811;42.656;23.394;2023-12-29T04:14:54;95648.94;;;1.03;84.07
77723;BME280;67811;42.656;23.394;2023-12-29T04:18:59;95655.72;;;1.05;83.71
77723;BME280;67811;42.656;23.394;2023-12-29T04:23:06;95644.50;;;0.92;83.24
77723;BME280;67811;42.656;23.394;2023-12-29T04:27:11;95654.69;;;0.84;82.48
77723;BME280;67811;42.656;23.394;2023-12-29T04:31:16;95653.72;;;0.85;82.62
77723;BME280;67811;42.656;23.394;2023-12-29T04:35:22;95645.09;;;0.61;83.39
77723;BME280;67811;42.656;23.394;2023-12-29T04:39:27;95648.91;;;0.68;83.08
77723;BME280;67811;42.656;23.394;2023-12-29T04:43:32;95651.72;;;0.65;83.42
77723;BME280;67811;42.656;23.394;2023-12-29T04:47:38;95650.31;;;0.61;83.42
77723;BME280;67811;42.656;23.394;2023-12-29T04:51:43;95651.56;;;0.55;83.49
77723;BME280;67811;42.656;23.394;2023-12-29T04:55:48;95650.38;;;0.59;82.43
77723;BME280;67811;42.656;23.394;2023-12-29T04:59:54;95640.00;;;0.46;82.56
77723;BME280;67811;42.656;23.394;2023-12-29T05:03:59;95637.97;;;0.39;82.83
77723;BME280;67811;42.656;23.394;2023-12-29T05:08:04;95647.69;;;0.24;83.49
77723;BME280;67811;42.656;23.394;2023-12-29T05:12:10;95634.63;;;0.37;82.54
77723;BME280;67811;42.656;23.394;2023-12-29T05:16:15;95630.16;;;0.26;83.30
77723;BME280;67811;42.656;23.394;2023-12-29T05:20:20;95630.53;;;0.45;83.66
77723;BME280;67811;42.656;23.394;2023-12-29T05:24:26;95628.38;;;0.39;84.43
77723;BME280;67811;42.656;23.394;2023-12-29T05:28:31;95634.88;;;0.58;83.64
77723;BME280;67811;42.656;23.394;2023-12-29T05:32:36;95638.59;;;0.66;83.80
77723;BME280;67811;42.656;23.394;2023-12-29T05:36:42;95637.09;;;0.75;82.93
77723;BME280;67811;42.656;23.394;2023-12-29T05:40:47;95641.13;;;0.79;82.47
77723;BME280;67811;42.656;23.394;2023-12-29T05:44:52;95641.34;;;0.76;82.14
77723;BME280;67811;42.656;23.394;2023-12-29T05:48:58;95646.69;;;0.74;81.58
77723;BME280;67811;42.656;23.394;2023-12-29T05:53:03;95647.91;;;0.58;81.71
77723;BME280;67811;42.656;23.394;2023-12-29T05:57:08;95644.00;;;0.39;82.53
77723;BME280;67811;42.656;23.394;2023-12-29T06:01:14;95646.03;;;0.23;83.08
77723;BME280;67811;42.656;23.394;2023-12-29T06:05:19;95637.72;;;0.05;84.30
77723;BME280;67811;42.656;23.394;2023-12-29T06:09:24;95643.28;;;-0.12;84.42
77723;BME280;67811;42.656;23.394;2023-12-29T06:13:30;95632.69;;;-0.22;84.65
77723;BME280;67811;42.656;23.394;2023-12-29T06:17:35;95626.28;;;-0.05;83.67
77723;BME280;67811;42.656;23.394;2023-12-29T06:21:41;95628.91;;;-0.05;84.59
77723;BME280;67811;42.656;23.394;2023-12-29T06:25:47;95628.47;;;0.01;84.45
77723;BME280;67811;42.656;23.394;2023-12-29T06:29:52;95637.72;;;0.18;84.22
77723;BME280;67811;42.656;23.394;2023-12-29T06:33:57;95632.19;;;0.46;83.05
77723;BME280;67811;42.656;23.394;2023-12-29T06:38:03;95625.53;;;0.90;81.17
77723;BME280;67811;42.656;23.394;2023-12-29T06:42:08;95633.81;;;2.33;75.50
77723;BME280;67811;42.656;23.394;2023-12-29T06:46:13;95627.66;;;3.51;70.07
77723;BME280;67811;42.656;23.394;2023-12-29T06:50:19;95631.63;;;4.28;67.62
77723;BME280;67811;42.656;23.394;2023-12-29T06:54:24;95637.75;;;5.07;65.14
77723;BME280;67811;42.656;23.394;2023-12-29T06:58:30;95630.78;;;5.64;62.39
77723;BME280;67811;42.656;23.394;2023-12-29T07:02:38;95635.97;;;6.40;60.71
77723;BME280;67811;42.656;23.394;2023-12-29T07:06:43;95627.91;;;6.97;58.04
77723;BME280;67811;42.656;23.394;2023-12-29T07:10:49;95631.44;;;7.41;56.16
77723;BME280;67811;42.656;23.394;2023-12-29T07:14:54;95617.59;;;7.83;55.19
77723;BME280;67811;42.656;23.394;2023-12-29T07:18:59;95614.06;;;8.26;53.22
77723;BME280;67811;42.656;23.394;2023-12-29T07:23:05;95614.50;;;9.06;51.98
77723;BME280;67811;42.656;23.394;2023-12-29T07:27:10;95621.53;;;9.72;49.96
77723;BME280;67811;42.656;23.394;2023-12-29T07:31:15;95615.22;;;9.90;48.57
77723;BME280;67811;42.656;23.394;2023-12-29T07:35:21;95615.00;;;10.16;48.20
77723;BME280;67811;42.656;23.394;2023-12-29T07:39:26;95607.72;;;10.18;48.35
77723;BME280;67811;42.656;23.394;2023-12-29T07:43:31;95596.53;;;10.94;45.98
77723;BME280;67811;42.656;23.394;2023-12-29T07:47:37;95594.81;;;11.01;45.72
77723;BME280;67811;42.656;23.394;2023-12-29T07:51:44;95598.16;;;11.26;44.61
77723;BME280;67811;42.656;23.394;2023-12-29T07:55:49;95608.56;;;10.74;46.56
77723;BME280;67811;42.656;23.394;2023-12-29T07:59:55;95606.16;;;11.18;45.99
77723;BME280;67811;42.656;23.394;2023-12-29T08:04:00;95618.16;;;11.83;44.11
77723;BME280;67811;42.656;23.394;2023-12-29T08:08:05;95623.50;;;11.98;44.68
77723;BME280;67811;42.656;23.394;2023-12-29T08:12:11;95613.72;;;12.28;43.36
77723;BME280;67811;42.656;23.394;2023-12-29T08:16:16;95612.75;;;12.58;42.51
77723;BME280;67811;42.656;23.394;2023-12-29T08:20:21;95609.28;;;12.94;42.27
77723;BME280;67811;42.656;23.394;2023-12-29T08:24:27;95607.66;;;12.93;41.46
77723;BME280;67811;42.656;23.394;2023-12-29T08:28:32;95610.78;;;13.18;41.36
77723;BME280;67811;42.656;23.394;2023-12-29T08:32:37;95622.75;;;13.07;41.05
77723;BME280;67811;42.656;23.394;2023-12-29T08:36:43;95625.69;;;13.49;40.30
77723;BME280;67811;42.656;23.394;2023-12-29T08:40:48;95618.03;;;14.10;38.70
77723;BME280;67811;42.656;23.394;2023-12-29T08:44:53;95623.81;;;14.13;38.80
77723;BME280;67811;42.656;23.394;2023-12-29T08:48:59;95616.50;;;14.22;38.35
77723;BME280;67811;42.656;23.394;2023-12-29T08:53:04;95619.59;;;12.23;41.74
77723;BME280;67811;42.656;23.394;2023-12-29T08:57:09;95618.19;;;11.52;44.05
77723;BME280;67811;42.656;23.394;2023-12-29T09:01:14;95626.53;;;10.55;46.59
77723;BME280;67811;42.656;23.394;2023-12-29T09:05:20;95624.13;;;11.31;45.87
77723;BME280;67811;42.656;23.394;2023-12-29T09:09:25;95624.50;;;11.97;44.47
77723;BME280;67811;42.656;23.394;2023-12-29T09:13:30;95623.69;;;12.11;44.30
77723;BME280;67811;42.656;23.394;2023-12-29T09:17:36;95603.19;;;12.49;43.59
77723;BME280;67811;42.656;23.394;2023-12-29T09:21:41;95610.63;;;13.19;42.76
77723;BME280;67811;42.656;23.394;2023-12-29T09:25:46;95597.59;;;13.67;41.12
77723;BME280;67811;42.656;23.394;2023-12-29T09:29:51;95599.25;;;14.18;40.33
77723;BME280;67811;42.656;23.394;2023-12-29T09:33:58;95587.28;;;13.58;41.15
77723;BME280;67811;42.656;23.394;2023-12-29T09:38:03;95584.34;;;13.95;41.46
77723;BME280;67811;42.656;23.394;2023-12-29T09:42:16;95583.81;;;14.76;39.27
77723;BME280;67811;42.656;23.394;2023-12-29T09:46:26;95574.22;;;14.88;39.61
77723;BME280;67811;42.656;23.394;2023-12-29T09:50:35;95561.84;;;15.28;38.63
77723;BME280;67811;42.656;23.394;2023-12-29T09:54:41;95563.25;;;15.31;38.97
77723;BME280;67811;42.656;23.394;2023-12-29T09:58:48;95557.38;;;15.75;37.54
77723;BME280;67811;42.656;23.394;2023-12-29T10:02:54;95552.44;;;16.12;37.53
77723;BME280;67811;42.656;23.394;2023-12-29T10:07:02;95537.66;;;16.88;36.05
77723;BME280;67811;42.656;23.394;2023-12-29T10:11:10;95532.66;;;17.04;35.58
77723;BME280;67811;42.656;23.394;2023-12-29T10:15:19;95527.56;;;17.28;35.82
77723;BME280;67811;42.656;23.394;2023-12-29T10:19:37;95515.94;;;17.72;34.44
77723;BME280;67811;42.656;23.394;2023-12-29T10:23:52;95511.19;;;17.43;35.28
77723;BME280;67811;42.656;23.394;2023-12-29T10:28:00;95503.91;;;17.81;34.59
77723;BME280;67811;42.656;23.394;2023-12-29T10:32:06;95501.41;;;17.86;34.30
77723;BME280;67811;42.656;23.394;2023-12-29T10:36:11;95489.22;;;16.96;34.97
77723;BME280;67811;42.656;23.394;2023-12-29T10:40:18;95492.44;;;15.95;37.48
77723;BME280;67811;42.656;23.394;2023-12-29T10:44:24;95472.91;;;15.35;39.16
77723;BME280;67811;42.656;23.394;2023-12-29T10:48:29;95474.56;;;15.75;38.59
77723;BME280;67811;42.656;23.394;2023-12-29T10:52:35;95466.00;;;16.38;37.85
77723;BME280;67811;42.656;23.394;2023-12-29T10:56:40;95455.84;;;15.95;38.58
77723;BME280;67811;42.656;23.394;2023-12-29T11:00:45;95449.28;;;15.45;39.67
77723;BME280;67811;42.656;23.394;2023-12-29T11:04:50;95449.88;;;15.93;39.45
77723;BME280;67811;42.656;23.394;2023-12-29T11:08:56;95446.50;;;16.24;38.77
77723;BME280;67811;42.656;23.394;2023-12-29T11:13:02;95439.09;;;16.26;38.98
77723;BME280;67811;42.656;23.394;2023-12-29T11:17:07;95437.06;;;16.73;38.07
77723;BME280;67811;42.656;23.394;2023-12-29T11:21:13;95423.13;;;16.06;39.19
77723;BME280;67811;42.656;23.394;2023-12-29T11:25:19;95420.88;;;15.97;39.60
77723;BME280;67811;42.656;23.394;2023-12-29T11:29:24;95416.63;;;16.34;39.13
77723;BME280;67811;42.656;23.394;2023-12-29T11:33:34;95420.50;;;16.45;38.91
77723;BME280;67811;42.656;23.394;2023-12-29T11:37:56;95409.09;;;17.01;37.72
77723;BME280;67811;42.656;23.394;2023-12-29T11:42:25;95413.31;;;17.40;36.71
77723;BME280;67811;42.656;23.394;2023-12-29T11:46:39;95408.59;;;17.60;36.76
77723;BME280;67811;42.656;23.394;2023-12-29T11:50:45;95407.34;;;17.88;36.36
77723;BME280;67811;42.656;23.394;2023-12-29T11:54:50;95396.44;;;17.15;37.84
77723;BME280;67811;42.656;23.394;2023-12-29T11:58:55;95389.66;;;16.80;39.08
77723;BME280;67811;42.656;23.394;2023-12-29T12:03:01;95395.19;;;16.85;38.07
77723;BME280;67811;42.656;23.394;2023-12-29T12:15:34;95389.38;;;16.57;38.88
77723;BME280;67811;42.656;23.394;2023-12-29T12:19:39;95382.41;;;16.04;39.82
77723;BME280;67811;42.656;23.394;2023-12-29T12:23:45;95376.34;;;15.77;40.14
77723;BME280;67811;42.656;23.394;2023-12-29T12:27:51;95378.75;;;15.99;40.38
77723;BME280;67811;42.656;23.394;2023-12-29T12:31:57;95386.28;;;16.08;39.76
77723;BME280;67811;42.656;23.394;2023-12-29T12:36:03;95378.19;;;14.77;42.70
77723;BME280;67811;42.656;23.394;2023-12-29T12:40:08;95392.19;;;15.19;42.65
77723;BME280;67811;42.656;23.394;2023-12-29T12:44:14;95388.94;;;16.15;40.57
77723;BME280;67811;42.656;23.394;2023-12-29T12:48:23;95382.50;;;16.68;39.28
77723;BME280;67811;42.656;23.394;2023-12-29T12:52:32;95377.53;;;16.78;38.55
77723;BME280;67811;42.656;23.394;2023-12-29T12:56:38;95387.72;;;16.11;40.40
77723;BME280;67811;42.656;23.394;2023-12-29T13:00:46;95384.91;;;16.44;39.67
77723;BME280;67811;42.656;23.394;2023-12-29T13:04:51;95378.69;;;16.50;39.32
77723;BME280;67811;42.656;23.394;2023-12-29T13:08:57;95377.44;;;16.59;39.29
77723;BME280;67811;42.656;23.394;2023-12-29T13:13:03;95382.94;;;16.71;39.18
77723;BME280;67811;42.656;23.394;2023-12-29T13:17:11;95373.53;;;16.55;39.37
77723;BME280;67811;42.656;23.394;2023-12-29T13:21:17;95365.91;;;16.21;39.96
77723;BME280;67811;42.656;23.394;2023-12-29T13:25:26;95369.09;;;16.36;39.52
77723;BME280;67811;42.656;23.394;2023-12-29T13:29:32;95365.59;;;16.36;39.82
77723;BME280;67811;42.656;23.394;2023-12-29T13:33:54;95367.59;;;16.47;39.90
77723;BME280;67811;42.656;23.394;2023-12-29T13:38:18;95369.50;;;16.40;39.42
77723;BME280;67811;42.656;23.394;2023-12-29T13:42:27;95360.84;;;15.99;39.95
77723;BME280;67811;42.656;23.394;2023-12-29T13:46:34;95362.91;;;15.91;40.70
77723;BME280;67811;42.656;23.394;2023-12-29T13:50:45;95359.22;;;15.92;40.95
77723;BME280;67811;42.656;23.394;2023-12-29T13:54:51;95363.53;;;15.99;40.96
77723;BME280;67811;42.656;23.394;2023-12-29T13:58:56;95361.66;;;16.00;40.46
77723;BME280;67811;42.656;23.394;2023-12-29T14:03:06;95359.91;;;15.54;41.05
77723;BME280;67811;42.656;23.394;2023-12-29T14:07:11;95366.94;;;15.28;41.68
77723;BME280;67811;42.656;23.394;2023-12-29T14:11:18;95371.84;;;14.98;42.32
77723;BME280;67811;42.656;23.394;2023-12-29T14:15:23;95390.31;;;14.93;41.62
77723;BME280;67811;42.656;23.394;2023-12-29T14:19:35;95384.59;;;14.90;41.06
77723;BME280;67811;42.656;23.394;2023-12-29T14:23:40;95382.28;;;14.60;40.82
77723;BME280;67811;42.656;23.394;2023-12-29T14:27:52;95384.94;;;14.06;41.84
77723;BME280;67811;42.656;23.394;2023-12-29T14:31:57;95387.38;;;13.59;42.65
77723;BME280;67811;42.656;23.394;2023-12-29T14:36:03;95384.25;;;13.49;42.75
77723;BME280;67811;42.656;23.394;2023-12-29T14:40:11;95387.81;;;12.85;45.15
77723;BME280;67811;42.656;23.394;2023-12-29T14:44:16;95389.69;;;12.42;46.55
77723;BME280;67811;42.656;23.394;2023-12-29T14:48:21;95389.31;;;12.09;49.01
77723;BME280;67811;42.656;23.394;2023-12-29T14:52:27;95374.50;;;11.70;50.99
77723;BME280;67811;42.656;23.394;2023-12-29T14:56:32;95389.13;;;11.51;52.78
77723;BME280;67811;42.656;23.394;2023-12-29T15:00:37;95391.56;;;11.08;53.59
77723;BME280;67811;42.656;23.394;2023-12-29T15:04:43;95401.28;;;10.78;55.36
77723;BME280;67811;42.656;23.394;2023-12-29T15:08:48;95406.81;;;10.69;56.45
77723;BME280;67811;42.656;23.394;2023-12-29T15:12:53;95394.31;;;10.54;56.98
77723;BME280;67811;42.656;23.394;2023-12-29T15:16:59;95398.75;;;10.39;56.94
77723;BME280;67811;42.656;23.394;2023-12-29T15:21:04;95409.06;;;10.34;56.91
77723;BME280;67811;42.656;23.394;2023-12-29T15:25:09;95398.91;;;10.38;56.16
77723;BME280;67811;42.656;23.394;2023-12-29T15:29:15;95396.72;;;10.10;57.38
77723;BME280;67811;42.656;23.394;2023-12-29T15:33:20;95406.13;;;9.90;57.84
77723;BME280;67811;42.656;23.394;2023-12-29T15:37:25;95416.16;;;9.63;58.88
77723;BME280;67811;42.656;23.394;2023-12-29T15:41:34;95411.72;;;9.47;60.13
77723;BME280;67811;42.656;23.394;2023-12-29T15:45:39;95418.72;;;9.16;60.81
77723;BME280;67811;42.656;23.394;2023-12-29T15:49:44;95425.69;;;9.09;60.81
77723;BME280;67811;42.656;23.394;2023-12-29T15:53:50;95421.25;;;8.85;59.88
77723;BME280;67811;42.656;23.394;2023-12-29T15:57:55;95435.28;;;8.77;60.47
77723;BME280;67811;42.656;23.394;2023-12-29T16:02:00;95438.91;;;8.60;62.06
77723;BME280;67811;42.656;23.394;2023-12-29T16:06:06;95445.97;;;8.43;62.25
77723;BME280;67811;42.656;23.394;2023-12-29T16:10:11;95446.91;;;8.34;62.53
77723;BME280;67811;42.656;23.394;2023-12-29T16:14:16;95448.72;;;8.33;61.18
77723;BME280;67811;42.656;23.394;2023-12-29T16:18:22;95444.72;;;8.13;62.09
77723;BME280;67811;42.656;23.394;2023-12-29T16:22:27;95445.41;;;8.23;61.65
77723;BME280;67811;42.656;23.394;2023-12-29T16:26:32;95446.31;;;8.48;60.60
77723;BME280;67811;42.656;23.394;2023-12-29T16:30:38;95439.25;;;8.65;60.25
77723;BME280;67811;42.656;23.394;2023-12-29T16:34:43;95445.19;;;8.59;60.26
77723;BME280;67811;42.656;23.394;2023-12-29T16:38:50;95450.13;;;8.62;60.41
77723;BME280;67811;42.656;23.394;2023-12-29T16:42:55;95450.44;;;8.51;60.45
77723;BME280;67811;42.656;23.394;2023-12-29T16:47:00;95448.97;;;8.56;60.84
77723;BME280;67811;42.656;23.394;2023-12-29T16:51:06;95456.56;;;8.67;60.07
77723;BME280;67811;42.656;23.394;2023-12-29T16:55:11;95454.09;;;8.66;60.05
77723;BME280;67811;42.656;23.394;2023-12-29T16:59:16;95454.06;;;8.50;60.54
77723;BME280;67811;42.656;23.394;2023-12-29T17:03:22;95458.53;;;8.49;60.54
77723;BME280;67811;42.656;23.394;2023-12-29T17:07:27;95465.94;;;8.45;61.18
77723;BME280;67811;42.656;23.394;2023-12-29T17:11:32;95463.88;;;8.15;62.03
77723;BME280;67811;42.656;23.394;2023-12-29T17:15:38;95468.75;;;7.93;62.21
77723;BME280;67811;42.656;23.394;2023-12-29T17:19:43;95467.88;;;7.51;63.05
77723;BME280;67811;42.656;23.394;2023-12-29T17:23:48;95468.56;;;7.27;63.36
77723;BME280;67811;42.656;23.394;2023-12-29T17:27:55;95470.88;;;6.86;64.22
77723;BME280;67811;42.656;23.394;2023-12-29T17:32:01;95481.59;;;6.49;66.09
77723;BME280;67811;42.656;23.394;2023-12-29T17:36:12;95482.44;;;6.49;66.18
77723;BME280;67811;42.656;23.394;2023-12-29T17:40:17;95482.78;;;6.37;66.03
77723;BME280;67811;42.656;23.394;2023-12-29T17:44:23;95484.13;;;6.23;66.50
77723;BME280;67811;42.656;23.394;2023-12-29T17:48:28;95490.50;;;6.20;66.88
77723;BME280;67811;42.656;23.394;2023-12-29T17:52:33;95488.41;;;6.24;67.19
77723;BME280;67811;42.656;23.394;2023-12-29T17:56:39;95487.09;;;6.38;66.76
77723;BME280;67811;42.656;23.394;2023-12-29T18:00:44;95477.66;;;6.17;67.27
77723;BME280;67811;42.656;23.394;2023-12-29T18:04:49;95485.22;;;6.02;70.26
77723;BME280;67811;42.656;23.394;2023-12-29T18:08:54;95483.50;;;6.11;68.06
77723;BME280;67811;42.656;23.394;2023-12-29T18:13:00;95497.00;;;5.98;67.92
77723;BME280;67811;42.656;23.394;2023-12-29T18:17:05;95499.00;;;5.49;69.49
77723;BME280;67811;42.656;23.394;2023-12-29T18:21:10;95494.44;;;5.79;70.07
77723;BME280;67811;42.656;23.394;2023-12-29T18:25:16;95487.41;;;5.70;69.91
77723;BME280;67811;42.656;23.394;2023-12-29T18:29:21;95489.09;;;5.98;69.53
77723;BME280;67811;42.656;23.394;2023-12-29T18:33:26;95480.69;;;5.95;69.40
77723;BME280;67811;42.656;23.394;2023-12-29T18:37:32;95492.88;;;5.86;70.30
77723;BME280;67811;42.656;23.394;2023-12-29T18:41:37;95491.78;;;5.89;69.09
77723;BME280;67811;42.656;23.394;2023-12-29T18:45:42;95492.44;;;5.63;69.37
77723;BME280;67811;42.656;23.394;2023-12-29T18:49:47;95499.94;;;5.86;68.70
77723;BME280;67811;42.656;23.394;2023-12-29T18:53:53;95512.16;;;5.30;70.20
77723;BME280;67811;42.656;23.394;2023-12-29T18:57:58;95502.91;;;5.26;70.64
77723;BME280;67811;42.656;23.394;2023-12-29T19:02:03;95498.47;;;5.73;70.88
77723;BME280;67811;42.656;23.394;2023-12-29T19:06:08;95506.28;;;5.93;69.80
77723;BME280;67811;42.656;23.394;2023-12-29T19:10:14;95501.59;;;5.96;69.34
77723;BME280;67811;42.656;23.394;2023-12-29T19:14:19;95504.38;;;5.95;69.34
77723;BME280;67811;42.656;23.394;2023-12-29T19:18:24;95509.66;;;6.13;69.05
77723;BME280;67811;42.656;23.394;2023-12-29T19:22:30;95512.28;;;6.13;68.25
77723;BME280;67811;42.656;23.394;2023-12-29T19:26:35;95505.84;;;6.25;67.86
77723;BME280;67811;42.656;23.394;2023-12-29T19:30:40;95511.75;;;6.09;68.35
77723;BME280;67811;42.656;23.394;2023-12-29T19:34:45;95511.25;;;6.05;68.97
77723;BME280;67811;42.656;23.394;2023-12-29T19:38:51;95509.16;;;5.72;69.83
77723;BME280;67811;42.656;23.394;2023-12-29T19:42:56;95513.91;;;5.49;70.48
77723;BME280;67811;42.656;23.394;2023-12-29T19:47:01;95516.19;;;5.24;70.36
77723;BME280;67811;42.656;23.394;2023-12-29T19:51:07;95519.06;;;5.31;70.38
77723;BME280;67811;42.656;23.394;2023-12-29T19:55:12;95524.38;;;5.12;71.25
77723;BME280;67811;42.656;23.394;2023-12-29T19:59:18;95517.91;;;5.06;70.77
77723;BME280;67811;42.656;23.394;2023-12-29T20:03:23;95514.28;;;4.49;72.44
77723;BME280;67811;42.656;23.394;2023-12-29T20:07:29;95515.78;;;4.22;73.45
77723;BME280;67811;42.656;23.394;2023-12-29T20:11:38;95527.63;;;4.07;74.39
77723;BME280;67811;42.656;23.394;2023-12-29T20:15:44;95526.47;;;4.00;74.62
77723;BME280;67811;42.656;23.394;2023-12-29T20:19:49;95524.53;;;3.92;75.78
77723;BME280;67811;42.656;23.394;2023-12-29T20:23:55;95528.34;;;3.79;76.01
77723;BME280;67811;42.656;23.394;2023-12-29T20:28:01;95525.72;;;3.79;76.09
77723;BME280;67811;42.656;23.394;2023-12-29T20:32:07;95522.59;;;3.85;76.23
77723;BME280;67811;42.656;23.394;2023-12-29T20:36:12;95513.84;;;4.15;74.61
77723;BME280;67811;42.656;23.394;2023-12-29T20:40:17;95518.94;;;4.07;74.02
77723;BME280;67811;42.656;23.394;2023-12-29T20:44:22;95517.06;;;3.88;75.27
77723;BME280;67811;42.656;23.394;2023-12-29T20:48:28;95525.03;;;3.77;75.32
77723;BME280;67811;42.656;23.394;2023-12-29T20:52:33;95517.16;;;3.77;75.78
77723;BME280;67811;42.656;23.394;2023-12-29T20:56:38;95524.34;;;3.75;76.35
77723;BME280;67811;42.656;23.394;2023-12-29T21:00:44;95522.69;;;3.74;76.23
77723;BME280;67811;42.656;23.394;2023-12-29T21:04:49;95524.56;;;3.62;77.01
77723;BME280;67811;42.656;23.394;2023-12-29T21:08:54;95509.94;;;3.59;77.31
77723;BME280;67811;42.656;23.394;2023-12-29T21:13:00;95520.47;;;3.69;76.64
77723;BME280;67811;42.656;23.394;2023-12-29T21:17:05;95515.03;;;3.91;75.87
77723;BME280;67811;42.656;23.394;2023-12-29T21:21:10;95519.19;;;3.63;76.98
77723;BME280;67811;42.656;23.394;2023-12-29T21:25:16;95520.47;;;3.79;76.54
77723;BME280;67811;42.656;23.394;2023-12-29T21:29:21;95523.28;;;3.87;74.97
77723;BME280;67811;42.656;23.394;2023-12-29T21:33:26;95512.63;;;3.79;75.21
77723;BME280;67811;42.656;23.394;2023-12-29T21:37:31;95515.44;;;3.56;75.68
77723;BME280;67811;42.656;23.394;2023-12-29T21:41:37;95516.34;;;3.46;76.77
77723;BME280;67811;42.656;23.394;2023-12-29T21:45:42;95514.66;;;3.65;76.23